METAR AND TAF INFORMATION
METAR FOR UATE
ADDS - METARS form results

(1240 UTC 23 January 2019)
Data provider http://aviationweather.gov/metar/data/
 
METAR text: UATE 231230Z 07006MPS 9999 SCT013 M00/M03 Q1025 R12/0///70 NOSIG RMK QFE767/1022
Conditions at: UATE (AKTAU KAZAKHSTAN, KZ) observed 1230 UTC 23 January 2019
Temperature: 0.0°C (32°F)
Dewpoint: -3.0°C (27°F) [RH = 80%]
Pressure (altimeter): 30.27 inches Hg (1025.0 mb)
Winds: from the ENE (70 degrees) at 14 MPH (12 knots; 6.2 m/s)
Visibility: 6 or more miles (10+ km)
Ceiling: at least 12,000 feet AGL
Clouds: scattered clouds at 1300 feet AGL
Weather: no significant weather observed at this time

METAR text: UATE 231200Z 07007MPS 9999 BKN010 M00/M02 Q1025 R12/0///70 NOSIG RMK QFE767/1022
Conditions at: UATE (AKTAU KAZAKHSTAN, KZ) observed 1200 UTC 23 January 2019
Temperature: 0.0°C (32°F)
Dewpoint: -2.0°C (28°F) [RH = 86%]
Pressure (altimeter): 30.27 inches Hg (1025.0 mb)
Winds: from the ENE (70 degrees) at 16 MPH (14 knots; 7.2 m/s)
Visibility: 6 or more miles (10+ km)
Ceiling: 1000 feet AGL
Clouds: broken clouds at 1000 feet AGL
Weather: no significant weather observed at this time

Forecast for: UATE (AKTAU KAZAKHSTAN, KZ)
Text: TAF UATE 231102Z 2312/2412 06008MPS 9999 SCT007 TX02/2410Z TNM02/2403Z
Forecast period: 1200 UTC 23 January 2019 to 1200 UTC 24 January 2019
Forecast type: FROM: standard forecast or significant change
Winds: from the ENE (60 degrees) at 18 MPH (16 knots; 8.2 m/s)
Visibility: 6 or more miles 10+ km)
Ceiling: at least 12,000 feet AGL
Clouds: scattered clouds at 700 feet AGL
Weather: no significant weather forecast for this period

 AIRPORT MAP

 RUNWAY INFORMATION

 AIRPORT FREQUENCIES
Type A/G Name RDO Frequency 895.1 MHZ
Type APP Name APP Frequency 124.2 MHZ
Type TWR Name TWR Frequency 120.7 MHZ

 AIRPORT NEAR NAVIGATION AIDS
Type VOR-DME Name Aktau Frequency 113300 KHZ
Type NDB Name Aktau Frequency 670 KHZ
Type NDB Name Aktau Frequency 670 KHZ



2018 Air Astana Virtual Airline